sensor_id;sensor_type;location;lat;lon;timestamp;pressure;altitude;pressure_sealevel;temperature;humidity
49315;BME280;36672;50.710;12.498;2023-03-15T00:01:27;97851.66;;;1.92;79.18
49315;BME280;36672;50.710;12.498;2023-03-15T00:03:52;97856.97;;;1.92;78.42
49315;BME280;36672;50.710;12.498;2023-03-15T00:06:20;97857.66;;;1.94;78.91
49315;BME280;36672;50.710;12.498;2023-03-15T00:08:45;97857.31;;;1.98;79.17
49315;BME280;36672;50.710;12.498;2023-03-15T00:11:11;97860.69;;;2.00;79.12
49315;BME280;36672;50.710;12.498;2023-03-15T00:13:36;97864.69;;;2.04;79.60
49315;BME280;36672;50.710;12.498;2023-03-15T00:16:02;97860.03;;;2.06;79.50
49315;BME280;36672;50.710;12.498;2023-03-15T00:18:30;97858.88;;;2.08;79.93
49315;BME280;36672;50.710;12.498;2023-03-15T00:20:55;97862.53;;;2.07;79.08
49315;BME280;36672;50.710;12.498;2023-03-15T00:23:20;97863.69;;;2.05;78.73
49315;BME280;36672;50.710;12.498;2023-03-15T00:25:46;97862.88;;;2.04;79.09
49315;BME280;36672;50.710;12.498;2023-03-15T00:28:12;97870.88;;;2.04;79.04
49315;BME280;36672;50.710;12.498;2023-03-15T00:30:37;97877.88;;;2.05;78.84
49315;BME280;36672;50.710;12.498;2023-03-15T00:33:03;97879.03;;;2.03;78.39
49315;BME280;36672;50.710;12.498;2023-03-15T00:35:31;97876.50;;;2.01;78.45
49315;BME280;36672;50.710;12.498;2023-03-15T00:37:57;97876.66;;;2.00;78.61
49315;BME280;36672;50.710;12.498;2023-03-15T00:40:23;97882.84;;;2.00;78.81
49315;BME280;36672;50.710;12.498;2023-03-15T00:42:48;97881.47;;;1.96;78.21
49315;BME280;36672;50.710;12.498;2023-03-15T00:45:15;97884.47;;;1.93;78.29
49315;BME280;36672;50.710;12.498;2023-03-15T00:47:40;97888.13;;;1.92;78.65
49315;BME280;36672;50.710;12.498;2023-03-15T00:50:05;97894.44;;;1.91;78.43
49315;BME280;36672;50.710;12.498;2023-03-15T00:52:34;97900.94;;;1.88;78.45
49315;BME280;36672;50.710;12.498;2023-03-15T00:55:00;97910.94;;;1.86;78.09
49315;BME280;36672;50.710;12.498;2023-03-15T00:57:25;97911.91;;;1.85;78.13
49315;BME280;36672;50.710;12.498;2023-03-15T00:59:50;97913.06;;;1.83;77.58
49315;BME280;36672;50.710;12.498;2023-03-15T01:02:17;97908.72;;;1.82;77.96
49315;BME280;36672;50.710;12.498;2023-03-15T01:04:46;97916.72;;;1.82;77.74
49315;BME280;36672;50.710;12.498;2023-03-15T01:07:11;97911.56;;;1.80;77.26
49315;BME280;36672;50.710;12.498;2023-03-15T01:09:36;97915.22;;;1.79;77.54
49315;BME280;36672;50.710;12.498;2023-03-15T01:12:01;97907.88;;;1.81;77.60
49315;BME280;36672;50.710;12.498;2023-03-15T01:14:26;97913.38;;;1.79;77.50
49315;BME280;36672;50.710;12.498;2023-03-15T01:16:52;97915.22;;;1.79;77.74
49315;BME280;36672;50.710;12.498;2023-03-15T01:19:17;97915.50;;;1.76;77.30
49315;BME280;36672;50.710;12.498;2023-03-15T01:21:43;97912.50;;;1.71;77.17
49315;BME280;36672;50.710;12.498;2023-03-15T01:24:14;97914.63;;;1.67;77.50
49315;BME280;36672;50.710;12.498;2023-03-15T01:26:40;97911.47;;;1.63;77.79
49315;BME280;36672;50.710;12.498;2023-03-15T01:29:05;97907.44;;;1.59;77.44
49315;BME280;36672;50.710;12.498;2023-03-15T01:31:31;97913.78;;;1.58;77.95
49315;BME280;36672;50.710;12.498;2023-03-15T01:33:56;97912.22;;;1.56;78.25
49315;BME280;36672;50.710;12.498;2023-03-15T01:36:22;97906.09;;;1.55;78.43
49315;BME280;36672;50.710;12.498;2023-03-15T01:38:47;97911.25;;;1.57;78.58
49315;BME280;36672;50.710;12.498;2023-03-15T01:41:14;97908.59;;;1.57;78.86
49315;BME280;36672;50.710;12.498;2023-03-15T01:43:39;97905.91;;;1.57;79.21
49315;BME280;36672;50.710;12.498;2023-03-15T01:48:43;97920.91;;;1.58;79.21
49315;BME280;36672;50.710;12.498;2023-03-15T01:51:13;97922.75;;;1.57;78.99
49315;BME280;36672;50.710;12.498;2023-03-15T01:53:40;97922.88;;;1.56;79.09
49315;BME280;36672;50.710;12.498;2023-03-15T01:56:06;97929.88;;;1.57;79.39
49315;BME280;36672;50.710;12.498;2023-03-15T01:58:32;97929.88;;;1.57;79.22
49315;BME280;36672;50.710;12.498;2023-03-15T02:00:58;97934.38;;;1.56;78.93
49315;BME280;36672;50.710;12.498;2023-03-15T02:03:29;97928.53;;;1.53;79.07
49315;BME280;36672;50.710;12.498;2023-03-15T02:05:56;97934.03;;;1.51;79.25
49315;BME280;36672;50.710;12.498;2023-03-15T02:08:24;97939.81;;;1.46;78.67
49315;BME280;36672;50.710;12.498;2023-03-15T02:10:51;97929.31;;;1.45;79.03
49315;BME280;36672;50.710;12.498;2023-03-15T02:13:18;97936.78;;;1.41;79.08
49315;BME280;36672;50.710;12.498;2023-03-15T02:15:46;97939.59;;;1.40;79.07
49315;BME280;36672;50.710;12.498;2023-03-15T02:18:12;97943.56;;;1.36;79.00
49315;BME280;36672;50.710;12.498;2023-03-15T02:23:07;97948.00;;;1.27;78.80
49315;BME280;36672;50.710;12.498;2023-03-15T02:25:44;97952.25;;;1.20;78.93
49315;BME280;36672;50.710;12.498;2023-03-15T02:28:14;97948.84;;;1.09;78.68
49315;BME280;36672;50.710;12.498;2023-03-15T02:30:40;97961.78;;;1.04;79.11
49315;BME280;36672;50.710;12.498;2023-03-15T02:33:06;97964.19;;;0.97;79.11
49315;BME280;36672;50.710;12.498;2023-03-15T02:35:32;97969.13;;;0.92;79.40
49315;BME280;36672;50.710;12.498;2023-03-15T02:37:58;97965.28;;;0.87;79.38
49315;BME280;36672;50.710;12.498;2023-03-15T02:40:24;97971.03;;;0.82;79.56
49315;BME280;36672;50.710;12.498;2023-03-15T02:42:52;97984.81;;;0.77;79.80
49315;BME280;36672;50.710;12.498;2023-03-15T02:45:20;97983.41;;;0.73;79.88
49315;BME280;36672;50.710;12.498;2023-03-15T02:47:45;97990.03;;;0.69;79.95
49315;BME280;36672;50.710;12.498;2023-03-15T02:50:12;97989.34;;;0.67;80.14
49315;BME280;36672;50.710;12.498;2023-03-15T02:52:37;97993.00;;;0.66;80.45
49315;BME280;36672;50.710;12.498;2023-03-15T02:55:02;97992.63;;;0.61;80.44
49315;BME280;36672;50.710;12.498;2023-03-15T02:57:27;97999.19;;;0.57;80.25
49315;BME280;36672;50.710;12.498;2023-03-15T02:59:53;98008.31;;;0.54;80.92
49315;BME280;36672;50.710;12.498;2023-03-15T03:02:20;98012.25;;;0.50;80.92
49315;BME280;36672;50.710;12.498;2023-03-15T03:04:45;98018.69;;;0.47;81.13
49315;BME280;36672;50.710;12.498;2023-03-15T03:07:10;98024.31;;;0.44;81.00
49315;BME280;36672;50.710;12.498;2023-03-15T03:09:36;98025.75;;;0.39;81.11
49315;BME280;36672;50.710;12.498;2023-03-15T03:12:01;98032.19;;;0.36;81.21
49315;BME280;36672;50.710;12.498;2023-03-15T03:14:26;98034.28;;;0.32;81.10
49315;BME280;36672;50.710;12.498;2023-03-15T03:16:51;98036.41;;;0.29;81.18
49315;BME280;36672;50.710;12.498;2023-03-15T03:19:17;98040.34;;;0.25;81.16
49315;BME280;36672;50.710;12.498;2023-03-15T03:21:42;98039.13;;;0.19;81.25
49315;BME280;36672;50.710;12.498;2023-03-15T03:24:07;98046.53;;;0.15;80.92
49315;BME280;36672;50.710;12.498;2023-03-15T03:26:33;98046.97;;;0.11;80.89
49315;BME280;36672;50.710;12.498;2023-03-15T03:28:58;98049.22;;;0.06;80.43
49315;BME280;36672;50.710;12.498;2023-03-15T03:31:24;98046.00;;;0.02;80.62
49315;BME280;36672;50.710;12.498;2023-03-15T03:33:50;98048.97;;;-0.01;80.26
49315;BME280;36672;50.710;12.498;2023-03-15T03:36:15;98058.88;;;-0.03;80.34
49315;BME280;36672;50.710;12.498;2023-03-15T03:38:40;98052.88;;;-0.05;80.44
49315;BME280;36672;50.710;12.498;2023-03-15T03:41:06;98065.31;;;-0.06;80.55
49315;BME280;36672;50.710;12.498;2023-03-15T03:43:32;98063.63;;;-0.07;80.60
49315;BME280;36672;50.710;12.498;2023-03-15T03:45:57;98067.56;;;-0.11;80.69
49315;BME280;36672;50.710;12.498;2023-03-15T03:48:22;98073.19;;;-0.14;80.68
49315;BME280;36672;50.710;12.498;2023-03-15T03:50:47;98075.28;;;-0.18;80.77
49315;BME280;36672;50.710;12.498;2023-03-15T03:53:12;98082.53;;;-0.20;80.76
49315;BME280;36672;50.710;12.498;2023-03-15T03:55:38;98086.31;;;-0.22;80.94
49315;BME280;36672;50.710;12.498;2023-03-15T03:58:03;98087.59;;;-0.26;81.09
49315;BME280;36672;50.710;12.498;2023-03-15T04:00:28;98089.69;;;-0.30;80.99
49315;BME280;36672;50.710;12.498;2023-03-15T04:02:53;98101.56;;;-0.34;81.05
49315;BME280;36672;50.710;12.498;2023-03-15T04:05:19;98101.56;;;-0.34;81.29
49315;BME280;36672;50.710;12.498;2023-03-15T04:07:44;98102.69;;;-0.37;81.43
49315;BME280;36672;50.710;12.498;2023-03-15T04:10:09;98105.75;;;-0.41;81.32
49315;BME280;36672;50.710;12.498;2023-03-15T04:12:39;98111.06;;;-0.41;81.50
49315;BME280;36672;50.710;12.498;2023-03-15T04:15:04;98115.66;;;-0.43;81.68
49315;BME280;36672;50.710;12.498;2023-03-15T04:17:30;98116.22;;;-0.50;81.51
49315;BME280;36672;50.710;12.498;2023-03-15T04:19:55;98122.94;;;-0.55;82.11
49315;BME280;36672;50.710;12.498;2023-03-15T04:22:20;98131.31;;;-0.60;81.75
49315;BME280;36672;50.710;12.498;2023-03-15T04:24:45;98143.19;;;-0.64;82.42
49315;BME280;36672;50.710;12.498;2023-03-15T04:27:14;98138.16;;;-0.67;82.42
49315;BME280;36672;50.710;12.498;2023-03-15T04:29:42;98140.34;;;-0.72;82.58
49315;BME280;36672;50.710;12.498;2023-03-15T04:32:08;98141.63;;;-0.76;83.03
49315;BME280;36672;50.710;12.498;2023-03-15T04:34:33;98139.09;;;-0.78;83.44
49315;BME280;36672;50.710;12.498;2023-03-15T04:37:03;98139.41;;;-0.81;83.16
49315;BME280;36672;50.710;12.498;2023-03-15T04:39:28;98156.41;;;-0.84;83.18
49315;BME280;36672;50.710;12.498;2023-03-15T04:41:53;98154.16;;;-0.88;82.97
49315;BME280;36672;50.710;12.498;2023-03-15T04:44:19;98152.63;;;-0.91;83.35
49315;BME280;36672;50.710;12.498;2023-03-15T04:46:44;98157.34;;;-0.94;83.33
49315;BME280;36672;50.710;12.498;2023-03-15T04:49:09;98159.44;;;-0.98;83.46
49315;BME280;36672;50.710;12.498;2023-03-15T04:51:35;98163.06;;;-0.99;84.05
49315;BME280;36672;50.710;12.498;2023-03-15T04:54:00;98164.75;;;-0.98;83.55
49315;BME280;36672;50.710;12.498;2023-03-15T04:56:26;98162.94;;;-0.97;83.74
49315;BME280;36672;50.710;12.498;2023-03-15T04:58:52;98164.59;;;-0.96;84.15
49315;BME280;36672;50.710;12.498;2023-03-15T05:01:17;98172.69;;;-0.98;83.49
49315;BME280;36672;50.710;12.498;2023-03-15T05:03:42;98177.19;;;-0.99;83.44
49315;BME280;36672;50.710;12.498;2023-03-15T05:06:08;98178.97;;;-0.99;83.55
49315;BME280;36672;50.710;12.498;2023-03-15T05:08:36;98185.25;;;-1.00;83.90
49315;BME280;36672;50.710;12.498;2023-03-15T05:11:04;98183.84;;;-1.04;83.51
49315;BME280;36672;50.710;12.498;2023-03-15T05:13:30;98181.31;;;-1.06;83.78
49315;BME280;36672;50.710;12.498;2023-03-15T05:15:55;98183.97;;;-1.06;83.88
49315;BME280;36672;50.710;12.498;2023-03-15T05:18:21;98187.75;;;-1.08;84.35
49315;BME280;36672;50.710;12.498;2023-03-15T05:20:46;98192.06;;;-1.07;84.16
49315;BME280;36672;50.710;12.498;2023-03-15T05:23:11;98185.91;;;-1.08;84.15
49315;BME280;36672;50.710;12.498;2023-03-15T05:25:37;98194.88;;;-1.09;84.10
49315;BME280;36672;50.710;12.498;2023-03-15T05:28:02;98204.63;;;-1.09;84.52
49315;BME280;36672;50.710;12.498;2023-03-15T05:30:29;98209.09;;;-1.10;84.35
49315;BME280;36672;50.710;12.498;2023-03-15T05:32:54;98210.63;;;-1.07;83.92
49315;BME280;36672;50.710;12.498;2023-03-15T05:35:20;98216.75;;;-1.07;84.19
49315;BME280;36672;50.710;12.498;2023-03-15T05:37:48;98223.91;;;-1.07;84.21
49315;BME280;36672;50.710;12.498;2023-03-15T05:40:13;98219.41;;;-1.07;84.70
49315;BME280;36672;50.710;12.498;2023-03-15T05:42:39;98215.50;;;-1.03;83.98
49315;BME280;36672;50.710;12.498;2023-03-15T05:45:05;98220.56;;;-1.00;83.92
49315;BME280;36672;50.710;12.498;2023-03-15T05:47:30;98220.19;;;-0.95;84.33
49315;BME280;36672;50.710;12.498;2023-03-15T05:49:55;98223.28;;;-0.90;84.12
49315;BME280;36672;50.710;12.498;2023-03-15T05:52:21;98236.53;;;-0.80;84.00
49315;BME280;36672;50.710;12.498;2023-03-15T05:54:46;98245.81;;;-0.64;84.26
49315;BME280;36672;50.710;12.498;2023-03-15T05:57:11;98246.84;;;-0.46;84.27
49315;BME280;36672;50.710;12.498;2023-03-15T05:59:36;98250.38;;;-0.26;84.09
49315;BME280;36672;50.710;12.498;2023-03-15T06:02:02;98263.53;;;0.05;84.25
49315;BME280;36672;50.710;12.498;2023-03-15T06:04:27;98262.50;;;0.65;84.60
49315;BME280;36672;50.710;12.498;2023-03-15T06:06:53;98257.03;;;1.70;85.54
49315;BME280;36672;50.710;12.498;2023-03-15T06:09:18;98252.59;;;2.95;82.46
49315;BME280;36672;50.710;12.498;2023-03-15T06:11:43;98255.19;;;4.07;77.65
49315;BME280;36672;50.710;12.498;2023-03-15T06:14:08;98257.81;;;5.06;72.36
49315;BME280;36672;50.710;12.498;2023-03-15T06:16:34;98261.88;;;5.81;71.34
49315;BME280;36672;50.710;12.498;2023-03-15T06:18:59;98262.03;;;6.66;68.72
49315;BME280;36672;50.710;12.498;2023-03-15T06:21:24;98264.25;;;7.30;65.50
49315;BME280;36672;50.710;12.498;2023-03-15T06:23:50;98259.31;;;7.04;58.39
49315;BME280;36672;50.710;12.498;2023-03-15T06:26:15;98269.38;;;6.49;55.11
49315;BME280;36672;50.710;12.498;2023-03-15T06:28:43;98266.97;;;6.08;57.65
49315;BME280;36672;50.710;12.498;2023-03-15T06:31:08;98266.94;;;5.45;58.01
49315;BME280;36672;50.710;12.498;2023-03-15T06:33:35;98271.56;;;5.03;57.85
49315;BME280;36672;50.710;12.498;2023-03-15T06:36:00;98271.44;;;4.71;58.18
49315;BME280;36672;50.710;12.498;2023-03-15T06:38:25;98265.75;;;4.33;58.70
49315;BME280;36672;50.710;12.498;2023-03-15T06:40:50;98272.09;;;4.24;61.17
49315;BME280;36672;50.710;12.498;2023-03-15T06:43:15;98263.88;;;4.25;61.07
49315;BME280;36672;50.710;12.498;2023-03-15T06:45:46;98264.06;;;4.24;59.52
49315;BME280;36672;50.710;12.498;2023-03-15T06:48:12;98267.41;;;4.26;60.12
49315;BME280;36672;50.710;12.498;2023-03-15T06:50:37;98267.91;;;4.38;59.97
49315;BME280;36672;50.710;12.498;2023-03-15T06:53:03;98278.00;;;3.77;59.35
49315;BME280;36672;50.710;12.498;2023-03-15T06:55:28;98276.28;;;3.67;61.59
49315;BME280;36672;50.710;12.498;2023-03-15T06:57:53;98288.56;;;3.43;62.87
49315;BME280;36672;50.710;12.498;2023-03-15T07:00:18;98291.53;;;3.32;63.34
49315;BME280;36672;50.710;12.498;2023-03-15T07:02:44;98291.34;;;2.99;63.39
49315;BME280;36672;50.710;12.498;2023-03-15T07:05:09;98296.97;;;2.96;64.91
49315;BME280;36672;50.710;12.498;2023-03-15T07:07:35;98293.97;;;2.73;64.92
49315;BME280;36672;50.710;12.498;2023-03-15T07:10:00;98303.06;;;2.62;65.47
49315;BME280;36672;50.710;12.498;2023-03-15T07:12:25;98303.38;;;2.59;65.56
49315;BME280;36672;50.710;12.498;2023-03-15T07:14:50;98307.88;;;2.58;66.28
49315;BME280;36672;50.710;12.498;2023-03-15T07:17:16;98302.38;;;2.42;65.95
49315;BME280;36672;50.710;12.498;2023-03-15T07:19:41;98301.19;;;2.36;66.75
49315;BME280;36672;50.710;12.498;2023-03-15T07:22:06;98312.59;;;2.28;66.13
49315;BME280;36672;50.710;12.498;2023-03-15T07:24:31;98305.91;;;2.24;66.51
49315;BME280;36672;50.710;12.498;2023-03-15T07:26:57;98313.22;;;2.22;67.39
49315;BME280;36672;50.710;12.498;2023-03-15T07:29:22;98314.19;;;2.21;67.77
49315;BME280;36672;50.710;12.498;2023-03-15T07:31:48;98317.34;;;2.17;67.73
49315;BME280;36672;50.710;12.498;2023-03-15T07:34:13;98322.66;;;2.17;67.46
49315;BME280;36672;50.710;12.498;2023-03-15T07:36:39;98322.41;;;2.10;67.58
49315;BME280;36672;50.710;12.498;2023-03-15T07:39:04;98328.13;;;2.15;68.96
49315;BME280;36672;50.710;12.498;2023-03-15T07:41:29;98333.53;;;2.05;68.88
49315;BME280;36672;50.710;12.498;2023-03-15T07:43:55;98335.81;;;2.00;69.73
49315;BME280;36672;50.710;12.498;2023-03-15T07:46:20;98339.84;;;2.04;71.17
49315;BME280;36672;50.710;12.498;2023-03-15T07:48:45;98341.16;;;2.00;71.60
49315;BME280;36672;50.710;12.498;2023-03-15T07:51:11;98343.53;;;1.93;72.04
49315;BME280;36672;50.710;12.498;2023-03-15T07:53:36;98351.47;;;1.85;72.71
49315;BME280;36672;50.710;12.498;2023-03-15T07:56:01;98346.56;;;1.81;72.70
49315;BME280;36672;50.710;12.498;2023-03-15T07:58:26;98366.69;;;1.93;73.85
49315;BME280;36672;50.710;12.498;2023-03-15T08:00:58;98369.44;;;2.01;73.61
49315;BME280;36672;50.710;12.498;2023-03-15T08:03:23;98364.38;;;2.08;74.82
49315;BME280;36672;50.710;12.498;2023-03-15T08:05:50;98362.22;;;2.11;75.06
49315;BME280;36672;50.710;12.498;2023-03-15T08:08:16;98368.41;;;2.12;75.90
49315;BME280;36672;50.710;12.498;2023-03-15T08:10:42;98367.03;;;2.08;76.19
49315;BME280;36672;50.710;12.498;2023-03-15T08:13:07;98372.38;;;2.08;75.82
49315;BME280;36672;50.710;12.498;2023-03-15T08:15:33;98369.06;;;1.96;76.69
49315;BME280;36672;50.710;12.498;2023-03-15T08:17:58;98354.34;;;1.64;77.17
49315;BME280;36672;50.710;12.498;2023-03-15T08:20:24;98369.72;;;1.80;77.74
49315;BME280;36672;50.710;12.498;2023-03-15T08:22:49;98374.09;;;1.71;77.48
49315;BME280;36672;50.710;12.498;2023-03-15T08:25:16;98376.28;;;1.76;78.11
49315;BME280;36672;50.710;12.498;2023-03-15T08:27:42;98373.19;;;1.81;78.29
49315;BME280;36672;50.710;12.498;2023-03-15T08:30:08;98379.03;;;1.94;78.88
49315;BME280;36672;50.710;12.498;2023-03-15T08:32:35;98387.81;;;2.04;78.09
49315;BME280;36672;50.710;12.498;2023-03-15T08:35:00;98387.84;;;1.94;77.14
49315;BME280;36672;50.710;12.498;2023-03-15T08:37:25;98391.22;;;1.97;77.82
49315;BME280;36672;50.710;12.498;2023-03-15T08:39:50;98401.81;;;2.06;77.75
49315;BME280;36672;50.710;12.498;2023-03-15T08:42:25;98390.69;;;1.93;76.93
49315;BME280;36672;50.710;12.498;2023-03-15T08:44:50;98399.31;;;2.05;77.61
49315;BME280;36672;50.710;12.498;2023-03-15T08:47:15;98399.50;;;2.21;78.05
49315;BME280;36672;50.710;12.498;2023-03-15T08:49:40;98399.06;;;2.26;75.95
49315;BME280;36672;50.710;12.498;2023-03-15T08:52:06;98397.31;;;2.35;76.09
49315;BME280;36672;50.710;12.498;2023-03-15T08:54:31;98403.41;;;2.45;75.30
49315;BME280;36672;50.710;12.498;2023-03-15T08:56:56;98401.56;;;2.45;75.24
49315;BME280;36672;50.710;12.498;2023-03-15T08:59:22;98399.56;;;2.57;75.46
49315;BME280;36672;50.710;12.498;2023-03-15T09:01:47;98400.91;;;2.61;75.32
49315;BME280;36672;50.710;12.498;2023-03-15T09:04:12;98407.38;;;2.77;76.12
49315;BME280;36672;50.710;12.498;2023-03-15T09:06:37;98416.03;;;2.89;75.71
49315;BME280;36672;50.710;12.498;2023-03-15T09:09:03;98409.78;;;2.80;74.58
49315;BME280;36672;50.710;12.498;2023-03-15T09:11:28;98422.03;;;2.73;75.07
49315;BME280;36672;50.710;12.498;2023-03-15T09:13:53;98423.25;;;2.78;75.81
49315;BME280;36672;50.710;12.498;2023-03-15T09:16:18;98424.03;;;2.89;76.34
49315;BME280;36672;50.710;12.498;2023-03-15T09:18:43;98430.78;;;3.01;75.70
49315;BME280;36672;50.710;12.498;2023-03-15T09:21:09;98424.53;;;3.10;75.22
49315;BME280;36672;50.710;12.498;2023-03-15T09:23:34;98425.91;;;3.15;74.52
49315;BME280;36672;50.710;12.498;2023-03-15T09:26:00;98425.91;;;3.15;74.79
49315;BME280;36672;50.710;12.498;2023-03-15T09:28:25;98424.22;;;3.14;73.87
49315;BME280;36672;50.710;12.498;2023-03-15T09:30:50;98428.72;;;3.13;73.85
49315;BME280;36672;50.710;12.498;2023-03-15T09:33:16;98434.81;;;3.23;74.04
49315;BME280;36672;50.710;12.498;2023-03-15T09:35:41;98438.22;;;3.34;73.21
49315;BME280;36672;50.710;12.498;2023-03-15T09:38:06;98431.72;;;3.36;73.86
49315;BME280;36672;50.710;12.498;2023-03-15T09:40:33;98432.19;;;3.50;73.73
49315;BME280;36672;50.710;12.498;2023-03-15T09:45:26;98432.53;;;3.55;73.11
49315;BME280;36672;50.710;12.498;2023-03-15T09:47:59;98438.09;;;3.62;72.64
49315;BME280;36672;50.710;12.498;2023-03-15T09:50:33;98446.44;;;3.58;72.42
49315;BME280;36672;50.710;12.498;2023-03-15T09:53:05;98444.47;;;3.69;73.55
49315;BME280;36672;50.710;12.498;2023-03-15T09:55:34;98444.88;;;3.56;72.58
49315;BME280;36672;50.710;12.498;2023-03-15T09:58:00;98440.84;;;3.78;74.46
49315;BME280;36672;50.710;12.498;2023-03-15T10:00:30;98437.31;;;4.04;72.27
49315;BME280;36672;50.710;12.498;2023-03-15T10:02:58;98439.16;;;4.54;72.38
49315;BME280;36672;50.710;12.498;2023-03-15T10:05:31;98435.91;;;5.35;71.59
49315;BME280;36672;50.710;12.498;2023-03-15T10:07:59;98441.50;;;6.06;68.57
49315;BME280;36672;50.710;12.498;2023-03-15T10:10:27;98439.13;;;6.51;66.75
49315;BME280;36672;50.710;12.498;2023-03-15T10:12:57;98437.16;;;6.45;64.17
49315;BME280;36672;50.710;12.498;2023-03-15T10:15:32;98440.84;;;6.44;65.56
49315;BME280;36672;50.710;12.498;2023-03-15T10:18:22;98440.69;;;5.81;63.57
49315;BME280;36672;50.710;12.498;2023-03-15T10:20:55;98429.66;;;5.67;66.98
49315;BME280;36672;50.710;12.498;2023-03-15T10:25:49;98437.91;;;5.49;67.59
49315;BME280;36672;50.710;12.498;2023-03-15T10:30:45;98444.78;;;5.11;67.35
49315;BME280;36672;50.710;12.498;2023-03-15T10:35:56;98448.44;;;4.93;68.91
49315;BME280;36672;50.710;12.498;2023-03-15T10:38:22;98447.25;;;4.87;69.31
49315;BME280;36672;50.710;12.498;2023-03-15T10:40:49;98451.63;;;4.80;69.00
49315;BME280;36672;50.710;12.498;2023-03-15T10:45:47;98455.91;;;4.56;69.42
49315;BME280;36672;50.710;12.498;2023-03-15T10:48:21;98451.06;;;4.68;69.15
49315;BME280;36672;50.710;12.498;2023-03-15T10:50:46;98459.06;;;4.52;69.00
49315;BME280;36672;50.710;12.498;2023-03-15T10:53:15;98466.31;;;4.25;70.23
49315;BME280;36672;50.710;12.498;2023-03-15T10:55:44;98463.81;;;4.23;71.31
49315;BME280;36672;50.710;12.498;2023-03-15T10:58:26;98461.50;;;4.29;71.06
49315;BME280;36672;50.710;12.498;2023-03-15T11:00:57;98458.56;;;4.56;71.58
49315;BME280;36672;50.710;12.498;2023-03-15T11:03:23;98458.47;;;4.83;71.34
49315;BME280;36672;50.710;12.498;2023-03-15T11:05:53;98462.69;;;5.10;70.76
49315;BME280;36672;50.710;12.498;2023-03-15T11:08:19;98458.69;;;5.22;68.89
49315;BME280;36672;50.710;12.498;2023-03-15T11:10:46;98457.50;;;5.25;68.21
49315;BME280;36672;50.710;12.498;2023-03-15T11:18:41;98459.84;;;5.53;67.09
49315;BME280;36672;50.710;12.498;2023-03-15T11:21:09;98458.59;;;6.13;67.24
49315;BME280;36672;50.710;12.498;2023-03-15T11:23:37;98456.78;;;6.77;64.14
49315;BME280;36672;50.710;12.498;2023-03-15T11:26:03;98446.09;;;7.38;61.07
49315;BME280;36672;50.710;12.498;2023-03-15T11:28:29;98444.88;;;7.79;60.14
49315;BME280;36672;50.710;12.498;2023-03-15T11:30:56;98452.03;;;8.16;59.01
49315;BME280;36672;50.710;12.498;2023-03-15T11:33:31;98445.09;;;8.22;57.34
49315;BME280;36672;50.710;12.498;2023-03-15T11:36:01;98442.88;;;8.11;55.72
49315;BME280;36672;50.710;12.498;2023-03-15T11:38:36;98448.31;;;8.03;56.72
49315;BME280;36672;50.710;12.498;2023-03-15T11:41:05;98434.94;;;8.39;58.41
49315;BME280;36672;50.710;12.498;2023-03-15T11:46:24;98430.47;;;9.20;53.53
49315;BME280;36672;50.710;12.498;2023-03-15T11:51:30;98430.22;;;9.65;52.17
49315;BME280;36672;50.710;12.498;2023-03-15T11:56:44;98416.38;;;10.09;51.39
49315;BME280;36672;50.710;12.498;2023-03-15T12:01:39;98407.34;;;9.32;50.07
49315;BME280;36672;50.710;12.498;2023-03-15T12:06:49;98407.91;;;9.49;49.94
49315;BME280;36672;50.710;12.498;2023-03-15T12:12:01;98405.34;;;9.41;51.35
49315;BME280;36672;50.710;12.498;2023-03-15T12:14:34;98399.88;;;9.06;51.85
49315;BME280;36672;50.710;12.498;2023-03-15T12:19:44;98409.16;;;8.15;53.74
49315;BME280;36672;50.710;12.498;2023-03-15T12:22:15;98420.06;;;7.54;52.72
49315;BME280;36672;50.710;12.498;2023-03-15T12:24:41;98421.69;;;7.25;55.22
49315;BME280;36672;50.710;12.498;2023-03-15T12:27:18;98426.13;;;7.17;56.27
49315;BME280;36672;50.710;12.498;2023-03-15T12:29:45;98447.19;;;7.29;56.53
49315;BME280;36672;50.710;12.498;2023-03-15T12:32:11;98453.50;;;6.90;62.73
49315;BME280;36672;50.710;12.498;2023-03-15T12:34:53;98445.81;;;6.15;65.21
49315;BME280;36672;50.710;12.498;2023-03-15T12:37:26;98449.16;;;5.45;67.69
49315;BME280;36672;50.710;12.498;2023-03-15T12:40:28;98453.13;;;4.83;68.29
49315;BME280;36672;50.710;12.498;2023-03-15T12:52:59;98460.91;;;3.56;74.59
49315;BME280;36672;50.710;12.498;2023-03-15T12:55:28;98469.34;;;3.43;76.05
49315;BME280;36672;50.710;12.498;2023-03-15T12:57:56;98472.50;;;3.38;77.04
49315;BME280;36672;50.710;12.498;2023-03-15T13:00:22;98474.13;;;3.39;77.06
49315;BME280;36672;50.710;12.498;2023-03-15T13:02:52;98482.09;;;3.31;76.88
49315;BME280;36672;50.710;12.498;2023-03-15T13:05:20;98485.72;;;3.22;77.53
49315;BME280;36672;50.710;12.498;2023-03-15T13:12:54;98499.72;;;3.24;78.76
49315;BME280;36672;50.710;12.498;2023-03-15T13:17:50;98498.81;;;3.33;78.60
49315;BME280;36672;50.710;12.498;2023-03-15T13:20:37;98493.53;;;3.41;79.07
49315;BME280;36672;50.710;12.498;2023-03-15T13:23:17;98497.63;;;3.54;79.43
49315;BME280;36672;50.710;12.498;2023-03-15T13:28:22;98508.53;;;3.61;79.33
49315;BME280;36672;50.710;12.498;2023-03-15T13:35:43;98519.53;;;3.57;78.75
49315;BME280;36672;50.710;12.498;2023-03-15T13:40:53;98524.31;;;3.72;79.25
49315;BME280;36672;50.710;12.498;2023-03-15T13:43:18;98519.88;;;3.81;78.77
49315;BME280;36672;50.710;12.498;2023-03-15T13:45:44;98519.72;;;3.82;78.27
49315;BME280;36672;50.710;12.498;2023-03-15T13:48:09;98523.44;;;3.89;78.94
49315;BME280;36672;50.710;12.498;2023-03-15T13:50:35;98527.56;;;3.84;77.44
49315;BME280;36672;50.710;12.498;2023-03-15T13:53:00;98526.69;;;3.75;77.47
49315;BME280;36672;50.710;12.498;2023-03-15T13:55:26;98534.97;;;3.64;77.41
49315;BME280;36672;50.710;12.498;2023-03-15T13:57:54;98539.31;;;3.47;77.72
49315;BME280;36672;50.710;12.498;2023-03-15T14:00:21;98541.31;;;3.45;77.87
49315;BME280;36672;50.710;12.498;2023-03-15T14:02:57;98535.03;;;3.54;77.84
49315;BME280;36672;50.710;12.498;2023-03-15T14:05:25;98521.13;;;3.68;77.89